createdAt,value
2022-11-15T00:00:13.525Z,7.39
2022-11-15T00:02:58.952Z,6.46
2022-11-15T00:05:45.584Z,7.21
2022-11-15T00:08:33.965Z,5.54
2022-11-15T00:11:19.225Z,7.31
2022-11-15T00:14:04.510Z,7.25
2022-11-15T00:16:49.778Z,6.64
2022-11-15T00:19:36.225Z,5.64
2022-11-15T00:22:21.548Z,6.08
2022-11-15T00:25:07.186Z,5.65
2022-11-15T00:27:56.739Z,4.72
2022-11-15T00:30:42.382Z,5.71
2022-11-15T00:33:27.772Z,4.35
2022-11-15T00:36:13.666Z,6.89
2022-11-15T00:38:58.981Z,6.06
2022-11-15T00:41:44.320Z,7.50
2022-11-15T00:44:29.638Z,5.12
2022-11-15T00:47:15.011Z,8.16
2022-11-15T00:50:00.228Z,7.42
2022-11-15T00:52:47.100Z,7.62
2022-11-15T00:55:32.317Z,6.46
2022-11-15T00:58:17.501Z,4.65
2022-11-15T01:01:11.218Z,7.11
2022-11-15T01:04:01.042Z,7.81
2022-11-15T01:06:46.982Z,7.96
2022-11-15T01:09:32.220Z,7.91
2022-11-15T01:12:17.705Z,7.02
2022-11-15T01:15:03.716Z,5.45
2022-11-15T01:17:48.739Z,6.48
2022-11-15T01:20:34.161Z,6.82
2022-11-15T01:23:19.424Z,6.97
2022-11-15T01:26:06.960Z,8.13
2022-11-15T01:28:52.501Z,5.84
2022-11-15T01:31:38.729Z,6.61
2022-11-15T01:34:24.593Z,4.43
2022-11-15T01:37:10.182Z,5.79
2022-11-15T01:39:55.626Z,7.41
2022-11-15T01:42:40.957Z,6.81
2022-11-15T01:45:27.256Z,6.21
2022-11-15T01:48:12.489Z,6.45
2022-11-15T01:50:58.112Z,7.12
2022-11-15T01:53:48.640Z,5.44
2022-11-15T01:56:39.801Z,6.48
2022-11-15T01:59:25.807Z,5.39
2022-11-15T02:02:11.851Z,3.74
2022-11-15T02:04:57.429Z,3.41
2022-11-15T02:07:43.020Z,3.30
2022-11-15T02:10:28.800Z,4.93
2022-11-15T02:13:16.952Z,5.44
2022-11-15T02:16:14.335Z,5.59
2022-11-15T02:19:08.974Z,5.56
2022-11-15T02:22:12.969Z,6.61
2022-11-15T02:25:00.969Z,4.62
2022-11-15T02:27:58.606Z,4.24
2022-11-15T02:31:12.071Z,3.35
2022-11-15T02:34:08.610Z,2.71
2022-11-15T02:37:42.912Z,5.71
2022-11-15T02:40:36.521Z,5.74
2022-11-15T02:43:58.928Z,5.09
2022-11-15T02:47:10.235Z,6.52
2022-11-15T02:50:09.601Z,5.27
2022-11-15T02:52:55.665Z,6.04
2022-11-15T02:55:51.079Z,5.76
2022-11-15T02:59:09.417Z,6.47
2022-11-15T03:02:10.694Z,4.82
2022-11-15T03:05:03.783Z,4.50
2022-11-15T03:08:00.948Z,3.31
2022-11-15T03:11:08.183Z,5.16
2022-11-15T03:13:59.369Z,4.07
2022-11-15T03:17:03.224Z,3.81
2022-11-15T03:19:54.670Z,4.31
2022-11-15T03:22:44.382Z,5.31
2022-11-15T03:25:31.098Z,6.14
2022-11-15T03:28:24.978Z,5.50
2022-11-15T03:31:33.741Z,3.08
2022-11-15T03:34:26.853Z,4.12
2022-11-15T03:37:15.716Z,4.96
2022-11-15T03:40:03.403Z,2.47
2022-11-15T03:43:01.177Z,4.88
2022-11-15T03:45:56.175Z,3.02
2022-11-15T03:48:55.053Z,4.24
2022-11-15T03:51:41.777Z,4.75
2022-11-15T03:54:27.023Z,6.77
2022-11-15T03:57:12.909Z,6.12
2022-11-15T03:59:58.281Z,7.48
2022-11-15T04:02:43.737Z,6.28
2022-11-15T04:05:28.934Z,3.95
2022-11-15T04:08:14.223Z,5.52
2022-11-15T04:11:01.183Z,2.35
2022-11-15T04:13:47.456Z,5.41
2022-11-15T04:16:32.812Z,6.02
2022-11-15T04:19:37.093Z,5.10
2022-11-15T04:22:45.368Z,6.94
2022-11-15T04:25:32.376Z,5.77
2022-11-15T04:28:18.370Z,5.54
2022-11-15T04:31:03.385Z,5.54
2022-11-15T04:33:48.716Z,4.27
2022-11-15T04:36:52.533Z,1.71
2022-11-15T04:39:38.325Z,3.09
2022-11-15T04:42:23.663Z,5.19
2022-11-15T04:45:09.500Z,6.37
2022-11-15T04:47:55.447Z,5.29
2022-11-15T04:50:41.399Z,2.98
2022-11-15T04:53:27.080Z,4.99
2022-11-15T04:56:12.533Z,5.60
2022-11-15T04:58:57.519Z,4.40
2022-11-15T05:01:45.009Z,5.04
2022-11-15T05:04:30.575Z,3.11
2022-11-15T05:07:15.912Z,3.16
2022-11-15T05:10:01.364Z,4.28
2022-11-15T05:12:48.141Z,5.31
2022-11-15T05:15:33.592Z,2.64
2022-11-15T05:18:23.340Z,3.50
2022-11-15T05:21:12.109Z,4.50
2022-11-15T05:23:57.744Z,4.47
2022-11-15T05:26:43.121Z,4.71
2022-11-15T05:29:28.737Z,2.02
2022-11-15T05:32:14.332Z,2.26
2022-11-15T05:34:59.751Z,4.27
2022-11-15T05:37:45.707Z,4.62
2022-11-15T05:40:32.755Z,3.95
2022-11-15T05:43:17.917Z,5.17
2022-11-15T05:46:05.106Z,4.56
2022-11-15T05:48:53.020Z,2.44
2022-11-15T05:51:38.084Z,2.74
2022-11-15T05:54:24.374Z,5.61
2022-11-15T05:57:09.885Z,5.75
2022-11-15T05:59:56.151Z,3.35
2022-11-15T06:02:42.330Z,4.37
2022-11-15T06:05:27.713Z,3.49
2022-11-15T06:08:13.262Z,4.98
2022-11-15T06:11:05.092Z,6.34
2022-11-15T06:13:50.376Z,6.17
2022-11-15T06:16:35.744Z,4.34
2022-11-15T06:19:20.986Z,5.45
2022-11-15T06:22:06.334Z,5.72
2022-11-15T06:24:51.572Z,6.37
2022-11-15T06:27:37.070Z,3.54
2022-11-15T06:30:23.546Z,4.32
2022-11-15T06:33:09.851Z,5.59
2022-11-15T06:35:54.896Z,6.37
2022-11-15T06:38:41.049Z,4.87
2022-11-15T06:41:26.848Z,4.31
2022-11-15T06:44:12.894Z,1.98
2022-11-15T06:46:58.442Z,4.48
2022-11-15T06:49:44.222Z,5.66
2022-11-15T06:52:33.473Z,5.40
2022-11-15T06:55:18.825Z,5.46
2022-11-15T06:58:04.508Z,3.08
2022-11-15T07:00:49.794Z,3.22
2022-11-15T07:03:39.765Z,3.83
2022-11-15T07:06:24.823Z,5.17
2022-11-15T07:09:10.210Z,5.87
2022-11-15T07:11:55.599Z,7.06
2022-11-15T07:14:40.947Z,8.22
2022-11-15T07:17:26.980Z,8.36
2022-11-15T07:20:14.848Z,8.84
2022-11-15T07:23:05.087Z,9.47
2022-11-15T07:25:50.002Z,7.38
2022-11-15T07:28:35.846Z,6.93
2022-11-15T07:31:21.193Z,9.75
2022-11-15T07:34:06.590Z,8.20
2022-11-15T07:36:51.994Z,9.42
2022-11-15T07:39:37.173Z,14.75
2022-11-15T07:42:41.233Z,15.12
2022-11-15T07:45:30.025Z,15.48
2022-11-15T07:48:15.640Z,12.41
2022-11-15T07:51:00.974Z,12.23
2022-11-15T07:53:46.294Z,15.06
2022-11-15T07:56:31.576Z,15.87
2022-11-15T07:59:16.895Z,15.55
2022-11-15T08:02:02.666Z,16.94
2022-11-15T08:04:48.198Z,13.72
2022-11-15T08:07:33.588Z,11.21
2022-11-15T08:10:21.039Z,16.09
2022-11-15T08:13:09.060Z,17.85
2022-11-15T08:16:00.449Z,18.03
2022-11-15T08:18:46.026Z,12.81
2022-11-15T08:21:31.075Z,15.02
2022-11-15T08:24:16.647Z,17.65
2022-11-15T08:27:01.690Z,17.66
2022-11-15T08:29:48.282Z,17.80
2022-11-15T08:32:33.528Z,17.75
2022-11-15T08:35:24.775Z,20.07
2022-11-15T08:38:13.680Z,20.95
2022-11-15T08:41:05.157Z,20.85
2022-11-15T08:43:50.398Z,21.23
2022-11-15T08:46:35.693Z,17.79
2022-11-15T08:49:21.177Z,17.99
2022-11-15T08:52:06.674Z,20.57
2022-11-15T08:54:51.983Z,20.20
2022-11-15T08:57:37.510Z,20.49
2022-11-15T09:00:22.854Z,18.25
2022-11-15T09:03:08.283Z,19.28
2022-11-15T09:06:01.252Z,22.19
2022-11-15T09:08:48.219Z,21.73
2022-11-15T09:11:34.086Z,20.64
2022-11-15T09:14:19.326Z,22.53
2022-11-15T09:17:04.556Z,22.08
2022-11-15T09:19:49.793Z,21.70
2022-11-15T09:22:35.621Z,25.47
2022-11-15T09:25:20.840Z,22.77
2022-11-15T09:28:09.714Z,19.63
2022-11-15T09:31:06.800Z,19.79
2022-11-15T09:33:52.257Z,19.74
2022-11-15T09:36:37.555Z,19.41
2022-11-15T09:39:22.849Z,17.79
2022-11-15T09:42:27.232Z,23.68
2022-11-15T09:45:35.724Z,23.90
2022-11-15T09:49:05.142Z,23.05
2022-11-15T09:51:51.908Z,22.20
2022-11-15T09:54:52.783Z,20.31
2022-11-15T09:57:40.943Z,21.84
2022-11-15T10:03:16.353Z,16.94
2022-11-15T10:05:48.178Z,22.34
2022-11-15T10:08:27.703Z,18.83
2022-11-15T10:13:51.466Z,19.60
2022-11-15T10:16:21.028Z,20.16
2022-11-15T10:18:59.953Z,16.02
2022-11-15T10:21:40.340Z,17.22
2022-11-15T10:24:19.024Z,16.76
2022-11-15T10:26:49.521Z,14.96
2022-11-15T10:29:26.495Z,15.14
2022-11-15T10:31:54.114Z,17.68
2022-11-15T10:34:23.406Z,16.77
2022-11-15T10:37:02.702Z,16.42
2022-11-15T10:39:30.925Z,17.32
2022-11-15T10:41:58.060Z,16.93
2022-11-15T10:44:28.140Z,14.08
2022-11-15T10:46:57.912Z,16.09
2022-11-15T10:49:27.077Z,17.54
2022-11-15T10:51:59.321Z,18.57
2022-11-15T10:54:34.558Z,17.19
2022-11-15T10:57:09.057Z,16.26
2022-11-15T10:59:39.381Z,17.19
2022-11-15T11:02:38.498Z,19.11
2022-11-15T11:05:26.526Z,15.04
2022-11-15T11:08:01.069Z,14.11
2022-11-15T11:10:50.354Z,17.72
2022-11-15T11:13:24.164Z,16.69
2022-11-15T11:16:14.822Z,15.84
2022-11-15T11:19:14.603Z,20.06
2022-11-15T11:22:00.828Z,18.21
2022-11-15T11:24:39.937Z,14.40
2022-11-15T11:27:16.271Z,11.89
2022-11-15T11:30:03.048Z,16.49
2022-11-15T11:32:43.649Z,13.61
2022-11-15T11:35:21.392Z,17.16
2022-11-15T11:38:26.985Z,19.46
2022-11-15T11:41:21.276Z,17.49
2022-11-15T11:44:00.138Z,17.77
2022-11-15T11:46:35.035Z,16.68
2022-11-15T11:49:29.648Z,16.33
2022-11-15T11:52:18.402Z,16.04
2022-11-15T11:55:07.194Z,15.25
2022-11-15T11:57:52.100Z,15.19
2022-11-15T12:00:23.793Z,15.01
2022-11-15T12:03:08.660Z,19.93
2022-11-15T12:05:50.002Z,20.45
2022-11-15T12:08:27.386Z,21.57
2022-11-15T12:11:09.032Z,17.73
2022-11-15T12:13:37.854Z,20.57
2022-11-15T12:16:23.593Z,20.37
2022-11-15T12:18:54.334Z,17.24
2022-11-15T12:21:33.073Z,19.80
2022-11-15T12:24:06.819Z,20.12
2022-11-15T12:26:47.940Z,18.28
2022-11-15T12:29:27.124Z,17.08
2022-11-15T12:32:01.163Z,18.21
2022-11-15T12:34:27.813Z,18.23
2022-11-15T12:36:54.955Z,16.02
2022-11-15T12:39:21.969Z,18.79
2022-11-15T12:41:57.685Z,18.78
2022-11-15T12:44:45.152Z,16.46
2022-11-15T12:47:12.066Z,18.79
2022-11-15T12:49:38.758Z,14.58
2022-11-15T12:52:08.223Z,16.78
2022-11-15T12:54:37.825Z,16.59
2022-11-15T12:57:04.569Z,18.45
2022-11-15T12:59:50.997Z,16.75
2022-11-15T13:02:26.592Z,15.89
2022-11-15T13:04:56.172Z,17.54
2022-11-15T13:07:40.939Z,17.91
2022-11-15T13:10:13.765Z,16.42
2022-11-15T13:12:46.603Z,16.72
2022-11-15T13:15:13.328Z,16.03
2022-11-15T13:17:53.489Z,15.92
2022-11-15T13:20:40.497Z,15.85
2022-11-15T13:23:17.603Z,14.13
2022-11-15T13:26:12.042Z,15.27
2022-11-15T13:28:55.733Z,16.45
2022-11-15T13:31:30.883Z,15.94
2022-11-15T13:34:07.313Z,16.35
2022-11-15T13:36:44.674Z,16.34
2022-11-15T13:39:26.630Z,16.65
2022-11-15T13:41:54.137Z,15.33
2022-11-15T13:44:23.408Z,13.89
2022-11-15T13:46:50.129Z,15.20
2022-11-15T13:49:17.818Z,17.12
2022-11-15T13:51:55.437Z,13.81
2022-11-15T13:54:29.447Z,16.07
2022-11-15T13:57:10.345Z,15.68
2022-11-15T13:59:50.102Z,14.25
2022-11-15T14:02:20.729Z,15.66
2022-11-15T14:04:51.476Z,16.46
2022-11-15T14:07:23.623Z,15.47
2022-11-15T14:09:50.519Z,15.65
2022-11-15T14:12:25.676Z,15.99
2022-11-15T14:14:52.998Z,15.33
2022-11-15T14:17:39.483Z,14.13
2022-11-15T14:20:24.846Z,15.13
2022-11-15T14:23:03.086Z,15.08
2022-11-15T14:25:32.931Z,14.88
2022-11-15T14:28:21.493Z,15.41
2022-11-15T14:30:51.183Z,15.26
2022-11-15T14:33:23.890Z,15.17
2022-11-15T14:35:54.590Z,15.31
2022-11-15T14:38:21.404Z,14.15
2022-11-15T14:40:49.161Z,14.75
2022-11-15T14:43:16.429Z,14.58
2022-11-15T14:45:44.017Z,14.77
2022-11-15T14:48:10.775Z,14.42
2022-11-15T14:50:38.254Z,14.63
2022-11-15T14:53:05.567Z,15.56
2022-11-15T14:55:37.095Z,15.52
2022-11-15T14:58:05.307Z,15.49
2022-11-15T15:00:35.226Z,16.39
2022-11-15T15:03:03.377Z,15.72
2022-11-15T15:05:34.931Z,15.27
2022-11-15T15:08:06.190Z,14.76
2022-11-15T15:10:41.394Z,15.24
2022-11-15T15:13:25.631Z,15.05
2022-11-15T15:15:53.220Z,14.49
2022-11-15T15:18:28.121Z,15.14
2022-11-15T15:21:01.050Z,14.61
2022-11-15T15:23:32.125Z,14.47
2022-11-15T15:25:59.469Z,15.01
2022-11-15T15:28:31.273Z,14.98
2022-11-15T15:31:00.893Z,14.28
2022-11-15T15:33:27.852Z,14.77
2022-11-15T15:35:54.568Z,14.28
2022-11-15T15:38:22.579Z,13.80
2022-11-15T15:40:51.638Z,14.53
2022-11-15T15:43:18.943Z,13.66
2022-11-15T15:45:46.062Z,14.14
2022-11-15T15:48:15.835Z,13.66
2022-11-15T15:50:47.418Z,12.55
2022-11-15T15:53:14.592Z,13.46
2022-11-15T15:55:41.630Z,13.34
2022-11-15T15:58:09.276Z,13.00
2022-11-15T16:00:37.110Z,13.63
2022-11-15T16:03:04.296Z,12.82
2022-11-15T16:05:31.123Z,13.15
2022-11-15T16:07:57.915Z,13.17
2022-11-15T16:10:35.519Z,13.22
2022-11-15T16:13:02.670Z,13.31
2022-11-15T16:15:32.651Z,14.40
2022-11-15T16:18:01.643Z,12.72
2022-11-15T16:20:34.436Z,11.64
2022-11-15T16:23:08.444Z,12.62
2022-11-15T16:25:40.878Z,13.10
2022-11-15T16:28:27.054Z,11.97
2022-11-15T16:31:13.054Z,12.12
2022-11-15T16:33:41.027Z,13.21
2022-11-15T16:36:25.635Z,9.72
2022-11-15T16:38:55.368Z,10.03
2022-11-15T16:41:22.100Z,12.92
2022-11-15T16:43:49.614Z,13.42
2022-11-15T16:46:19.575Z,10.89
2022-11-15T16:48:47.047Z,10.78
2022-11-15T16:51:15.345Z,12.79
2022-11-15T16:53:42.474Z,13.62
2022-11-15T16:56:29.383Z,13.99
2022-11-15T16:59:00.448Z,12.01
2022-11-15T17:01:35.808Z,12.90
2022-11-15T17:04:13.319Z,11.52
2022-11-15T17:06:41.163Z,13.38
2022-11-15T17:09:13.312Z,12.59
2022-11-15T17:11:41.197Z,12.43
2022-11-15T17:14:08.372Z,12.89
2022-11-15T17:16:38.021Z,11.03
2022-11-15T17:19:06.122Z,10.71
2022-11-15T17:21:33.904Z,9.63
2022-11-15T17:24:00.759Z,12.13
2022-11-15T17:26:31.189Z,9.60
2022-11-15T17:29:01.533Z,12.36
2022-11-15T17:31:30.855Z,12.36
2022-11-15T17:33:57.663Z,12.64
2022-11-15T17:36:24.441Z,11.91
2022-11-15T17:38:58.015Z,11.15
2022-11-15T17:41:26.651Z,11.54
2022-11-15T17:43:53.478Z,10.26
2022-11-15T17:46:21.728Z,8.32
2022-11-15T17:48:50.591Z,8.86
2022-11-15T17:51:20.298Z,9.71
2022-11-15T17:53:49.776Z,10.41
2022-11-15T17:56:20.490Z,9.96
2022-11-15T17:58:51.775Z,10.74
2022-11-15T18:01:30.042Z,11.77
2022-11-15T18:04:00.444Z,11.78
2022-11-15T18:06:30.511Z,11.05
2022-11-15T18:08:57.998Z,10.86
2022-11-15T18:11:27.185Z,10.13
2022-11-15T18:13:58.016Z,10.24
2022-11-15T18:16:26.787Z,6.81
2022-11-15T18:18:54.785Z,7.37
2022-11-15T18:21:23.977Z,7.32
2022-11-15T18:23:55.324Z,10.25
2022-11-15T18:26:27.130Z,12.15
2022-11-15T18:28:56.495Z,11.81
2022-11-15T18:31:25.814Z,9.19
2022-11-15T18:33:53.348Z,11.98
2022-11-15T18:36:25.565Z,10.13
2022-11-15T18:38:59.976Z,12.00
2022-11-15T18:41:30.785Z,11.58
2022-11-15T18:43:59.998Z,12.31
2022-11-15T18:46:30.809Z,11.89
2022-11-15T18:49:00.034Z,10.91
2022-11-15T18:51:30.229Z,13.11
2022-11-15T18:53:59.195Z,12.16
2022-11-15T18:56:27.695Z,11.80
2022-11-15T18:58:56.502Z,12.46
2022-11-15T19:01:26.338Z,12.90
2022-11-15T19:03:57.980Z,12.60
2022-11-15T19:06:29.325Z,11.59
2022-11-15T19:08:59.234Z,12.35
2022-11-15T19:11:35.973Z,11.10
2022-11-15T19:14:14.497Z,9.93
2022-11-15T19:16:50.318Z,10.59
2022-11-15T19:19:22.582Z,12.37
2022-11-15T19:21:49.703Z,12.93
2022-11-15T19:24:16.591Z,11.85
2022-11-15T19:26:44.649Z,12.09
2022-11-15T19:29:11.865Z,11.72
2022-11-15T19:31:39.035Z,12.56
2022-11-15T19:34:07.721Z,9.75
2022-11-15T19:36:39.919Z,11.50
2022-11-15T19:39:10.003Z,12.00
2022-11-15T19:41:38.659Z,12.19
2022-11-15T19:44:07.433Z,11.63
2022-11-15T19:46:34.778Z,12.13
2022-11-15T19:49:01.938Z,10.86
2022-11-15T19:51:30.871Z,12.37
2022-11-15T19:54:06.728Z,10.67
2022-11-15T19:56:34.945Z,11.30
2022-11-15T19:59:03.057Z,8.23
2022-11-15T20:01:32.521Z,7.24
2022-11-15T20:04:00.557Z,8.29
2022-11-15T20:06:30.035Z,9.63
2022-11-15T20:08:57.771Z,8.51
2022-11-15T20:11:25.905Z,7.62
2022-11-15T20:14:01.852Z,10.14
2022-11-15T20:16:29.904Z,11.09
2022-11-15T20:18:57.496Z,7.73
2022-11-15T20:21:25.228Z,9.98
2022-11-15T20:23:53.102Z,10.09
2022-11-15T20:26:21.877Z,12.33
2022-11-15T20:28:50.504Z,13.01
2022-11-15T20:31:17.753Z,11.86
2022-11-15T20:33:45.024Z,11.36
2022-11-15T20:36:13.801Z,10.27
2022-11-15T20:38:40.632Z,11.32
2022-11-15T20:41:08.340Z,11.64
2022-11-15T20:43:36.120Z,7.59
2022-11-15T20:46:03.260Z,7.22
2022-11-15T20:48:30.605Z,8.52
2022-11-15T20:51:24.124Z,9.24
2022-11-15T20:53:51.995Z,7.65
2022-11-15T20:56:21.472Z,9.31
2022-11-15T20:58:53.448Z,11.20
2022-11-15T21:01:24.918Z,9.50
2022-11-15T21:03:53.999Z,9.70
2022-11-15T21:06:22.351Z,11.28
2022-11-15T21:09:11.882Z,11.74
2022-11-15T21:12:17.812Z,11.78
2022-11-15T21:14:45.237Z,11.57
2022-11-15T21:17:12.688Z,11.23
2022-11-15T21:19:39.392Z,8.40
2022-11-15T21:22:07.279Z,9.73
2022-11-15T21:24:34.040Z,9.07
2022-11-15T21:27:00.795Z,8.76
2022-11-15T21:29:28.648Z,7.32
2022-11-15T21:31:55.447Z,9.18
2022-11-15T21:34:22.504Z,9.08
2022-11-15T21:36:49.217Z,9.66
2022-11-15T21:39:15.885Z,9.18
2022-11-15T21:41:42.636Z,11.01
2022-11-15T21:44:09.559Z,9.93
2022-11-15T21:46:37.720Z,7.92
2022-11-15T21:49:05.879Z,9.37
2022-11-15T21:51:32.922Z,11.54
2022-11-15T21:54:00.579Z,10.50
2022-11-15T21:56:30.068Z,10.05
2022-11-15T21:58:57.109Z,9.41
2022-11-15T22:01:44.410Z,9.97
2022-11-15T22:04:11.605Z,9.30
2022-11-15T22:06:38.992Z,9.67
2022-11-15T22:09:08.012Z,8.80
2022-11-15T22:11:35.592Z,9.48
2022-11-15T22:14:02.882Z,11.56
2022-11-15T22:16:30.906Z,10.82
2022-11-15T22:18:58.001Z,9.53
2022-11-15T22:21:24.793Z,9.18
2022-11-15T22:23:52.522Z,8.37
2022-11-15T22:26:23.811Z,6.71
2022-11-15T22:28:52.100Z,7.27
2022-11-15T22:31:19.212Z,7.95
2022-11-15T22:33:46.885Z,8.35
2022-11-15T22:36:13.755Z,8.54
2022-11-15T22:38:40.635Z,8.18
2022-11-15T22:41:08.182Z,9.48
2022-11-15T22:43:35.271Z,8.07
2022-11-15T22:46:03.269Z,9.12
2022-11-15T22:48:33.336Z,7.95
2022-11-15T22:51:01.312Z,8.27
2022-11-15T22:53:29.114Z,8.88
2022-11-15T22:55:58.279Z,8.79
2022-11-15T22:58:27.592Z,9.06
2022-11-15T23:00:57.208Z,9.89
2022-11-15T23:03:25.572Z,8.83
2022-11-15T23:05:53.510Z,8.39
2022-11-15T23:08:20.416Z,9.34
2022-11-15T23:11:06.653Z,9.03
2022-11-15T23:13:33.942Z,9.36
2022-11-15T23:16:23.652Z,7.33
2022-11-15T23:18:56.457Z,8.47
2022-11-15T23:21:47.513Z,7.88
2022-11-15T23:24:15.236Z,6.98
2022-11-15T23:26:43.242Z,8.35
2022-11-15T23:29:12.433Z,7.11
2022-11-15T23:32:02.100Z,8.96
2022-11-15T23:34:31.676Z,9.14
2022-11-15T23:36:59.279Z,8.39
2022-11-15T23:39:26.143Z,8.71
2022-11-15T23:41:53.850Z,7.12
2022-11-15T23:44:20.690Z,8.82
2022-11-15T23:46:47.873Z,10.40
2022-11-15T23:49:14.757Z,10.36
2022-11-15T23:51:41.537Z,9.79
2022-11-15T23:54:08.864Z,10.04
2022-11-15T23:56:35.639Z,10.67
2022-11-15T23:59:03.210Z,9.11
